Time;durP1;ratioP1;P1;durP2;ratioP2;P2;SDS_P1;SDS_P2;PMS_P1;PMS_P2;Temp;Humidity;BMP_temperature;BMP_pressure;BME280_temperature;BME280_humidity;BME280_pressure;Samples;Min_cycle;Max_cycle;Signal;HPM_P1;HPM_P2
2022/05/10 00:03:46;;;;;;;17.80;9.57;;;;;;;17.01;71.17;101944.22;10459187;28;20048;-61
2022/05/10 00:08:49;;;;;;;17.77;10.25;;;;;;;17.01;72.10;101935.44;10458228;28;20078;-61
2022/05/10 00:13:51;;;;;;;21.25;9.48;;;;;;;16.99;70.53;101934.69;10457343;28;20049;-61
2022/05/10 00:18:53;;;;;;;15.43;10.32;;;;;;;16.51;75.16;101933.34;10458152;28;20052;-61
2022/05/10 00:23:56;;;;;;;13.15;10.40;;;;;;;16.51;76.09;101928.03;10458920;28;20057;-61
2022/05/10 00:29:00;;;;;;;18.33;11.10;;;;;;;16.58;74.74;101931.16;10458097;28;20041;-61
2022/05/10 00:34:03;;;;;;;17.50;10.50;;;;;;;16.18;78.27;101914.34;10432323;28;20045;-61
2022/05/10 00:39:05;;;;;;;16.42;10.05;;;;;;;16.47;75.16;101915.13;10431927;28;20049;-61
2022/05/10 00:44:31;;;;;;;12.50;10.52;;;;;;;16.14;79.22;101911.91;10457820;28;20045;-61
2022/05/10 00:49:51;;;;;;;15.90;10.75;;;;;;;15.70;82.19;101909.34;10472131;28;20045;-61
2022/05/10 00:54:56;;;;;;;17.83;11.07;;;;;;;15.95;79.91;101909.56;10472840;28;20060;-61
2022/05/10 01:00:07;;;;;;;20.13;11.77;;;;;;;16.07;79.31;101904.44;10457336;28;20045;-61
2022/05/10 01:05:41;;;;;;;16.55;11.05;;;;;;;15.76;81.02;101899.28;10457336;28;20049;-61
2022/05/10 01:11:00;;;;;;;21.83;12.35;;;;;;;16.03;78.62;101887.09;10456635;28;20132;-61
2022/05/10 01:16:08;;;;;;;20.33;13.35;;;;;;;15.72;79.88;101881.91;10472468;28;20049;-61
2022/05/10 01:21:45;;;;;;;19.27;12.60;;;;;;;15.60;80.79;101882.66;10455733;28;20525;-61
2022/05/10 01:26:51;;;;;;;19.85;13.07;;;;;;;15.49;84.23;101874.56;10472219;28;20056;-61
2022/05/10 01:37:22;;;;;;;16.83;13.00;;;;;;;15.36;81.10;101871.81;10455587;28;20407;-61
2022/05/10 01:42:49;;;;;;;20.40;13.75;;;;;;;15.44;79.73;101866.94;10456542;28;20052;-61
2022/05/10 01:47:57;;;;;;;21.30;13.18;;;;;;;15.12;84.75;101876.78;10454518;28;20396;-61
2022/05/10 01:53:12;;;;;;;24.33;13.43;;;;;;;15.11;85.70;101857.44;10454666;28;20052;-61
2022/05/10 01:58:23;;;;;;;16.88;12.85;;;;;;;14.98;86.26;101851.25;10455987;28;20060;-61
2022/05/10 02:03:27;;;;;;;17.15;13.32;;;;;;;14.96;88.52;101853.09;10454714;28;20045;-61
2022/05/10 02:08:47;;;;;;;22.77;13.43;;;;;;;14.90;90.70;101845.56;10470271;28;20053;-61
2022/05/10 02:14:02;;;;;;;20.98;13.57;;;;;;;14.77;91.12;101843.63;10470970;28;20055;-61
2022/05/10 02:19:10;;;;;;;16.20;13.68;;;;;;;14.79;90.69;101839.16;10455810;28;20045;-61
2022/05/10 02:24:51;;;;;;;20.67;14.30;;;;;;;14.62;91.46;101837.47;10470959;28;20049;-61
2022/05/10 02:30:08;;;;;;;20.67;14.20;;;;;;;14.58;91.80;101829.81;10455201;28;20041;-61
2022/05/10 02:35:14;;;;;;;22.67;14.88;;;;;;;14.51;92.27;101824.03;10477383;28;20453;-61
2022/05/10 02:40:17;;;;;;;19.70;14.57;;;;;;;14.46;94.15;101812.91;10462074;28;20041;-61
2022/05/10 02:45:19;;;;;;;22.10;14.57;;;;;;;14.38;94.24;101812.50;10461784;28;20400;-61
2022/05/10 02:50:26;;;;;;;22.55;13.50;;;;;;;14.52;91.54;101812.53;10462022;28;20049;-63
2022/05/10 02:55:36;;;;;;;19.90;13.95;;;;;;;14.57;91.33;101804.38;10461786;28;20400;-63
2022/05/10 03:00:39;;;;;;;22.98;14.68;;;;;;;14.62;90.96;101797.09;10476447;28;20380;-63
2022/05/10 03:05:41;;;;;;;21.20;14.52;;;;;;;14.70;88.70;101794.00;10460612;28;20071;-63
2022/05/10 03:10:43;;;;;;;22.98;14.95;;;;;;;14.45;92.55;101788.34;10469025;22;20041;-64
2022/05/10 03:15:46;;;;;;;21.27;14.25;;;;;;;14.66;88.75;101783.66;10420166;28;20060;-65
2022/05/10 03:20:48;;;;;;;22.80;14.90;;;;;;;14.74;87.61;101787.59;10418851;28;20057;-65
2022/05/10 03:25:51;;;;;;;19.98;13.73;;;;;;;14.72;87.15;101781.59;10436631;28;20060;-65
2022/05/10 03:30:53;;;;;;;19.02;13.23;;;;;;;14.62;88.44;101773.38;10458392;28;20514;-65
2022/05/10 03:35:56;;;;;;;20.73;13.45;;;;;;;14.42;92.73;101775.34;10460526;28;20454;-65
2022/05/10 03:40:58;;;;;;;22.83;12.35;;;;;;;14.36;93.28;101773.09;10460335;28;20056;-64
2022/05/10 03:46:05;;;;;;;15.07;10.50;;;;;;;14.37;90.35;101773.91;10458447;28;20385;-65
2022/05/10 03:51:08;;;;;;;16.30;11.32;;;;;;;14.38;91.54;101770.38;10458332;28;20049;-64
2022/05/10 03:56:10;;;;;;;18.90;11.18;;;;;;;14.20;92.24;101775.72;10459489;28;20060;-64
2022/05/10 04:01:13;;;;;;;15.30;10.73;;;;;;;14.21;90.31;101763.44;10458606;28;20053;-64
2022/05/10 04:06:16;;;;;;;15.48;9.57;;;;;;;14.06;92.28;101758.09;10459256;28;20140;-64
2022/05/10 04:11:19;;;;;;;20.45;8.98;;;;;;;14.07;89.85;101751.91;10440478;28;20433;-64
2022/05/10 04:16:22;;;;;;;15.52;9.07;;;;;;;14.22;88.24;101759.84;10417708;28;20053;-64
2022/05/10 04:21:24;;;;;;;11.88;8.30;;;;;;;13.79;89.42;101759.66;10417775;28;20057;-64
2022/05/10 04:26:27;;;;;;;14.45;8.52;;;;;;;13.71;91.66;101754.81;10440920;28;20075;-65
2022/05/10 04:31:29;;;;;;;12.90;8.70;;;;;;;14.13;89.02;101755.97;10456691;28;20056;-64
2022/05/10 04:36:32;;;;;;;12.02;8.40;;;;;;;14.11;90.04;101753.41;10458124;28;20048;-64
2022/05/10 04:41:36;;;;;;;13.98;9.13;;;;;;;14.25;89.93;101752.59;10457336;28;20045;-64
2022/05/10 04:46:40;;;;;;;10.02;8.43;;;;;;;14.49;89.94;101753.00;10433213;28;20053;-64
2022/05/10 04:51:42;;;;;;;12.68;9.73;;;;;;;14.60;89.26;101746.25;10416376;28;20053;-64
2022/05/10 04:56:45;;;;;;;16.50;12.45;;;;;;;14.60;89.74;101741.84;10416098;28;20048;-64
2022/05/10 05:01:47;;;;;;;20.85;12.23;;;;;;;14.99;88.29;101742.16;10416172;28;20124;-65
2022/05/10 05:06:51;;;;;;;18.13;12.48;;;;;;;15.18;84.62;101741.88;10414228;28;20049;-65
2022/05/10 05:11:53;;;;;;;21.10;13.65;;;;;;;15.35;84.11;101741.69;10416673;28;20057;-64
2022/05/10 05:16:56;;;;;;;18.92;13.70;;;;;;;15.33;86.90;101737.44;10415212;28;20053;-65
2022/05/10 05:21:58;;;;;;;19.42;14.43;;;;;;;15.59;86.98;101744.56;10398334;28;20103;-65
2022/05/10 05:27:03;;;;;;;20.02;15.48;;;;;;;15.82;81.61;101744.94;10415495;28;20045;-64
2022/05/10 05:32:09;;;;;;;21.33;14.95;;;;;;;16.08;80.29;101750.31;10416030;28;20488;-64
2022/05/10 05:42:33;;;;;;;23.60;15.23;;;;;;;16.02;80.94;101748.06;10455147;28;20415;-64
2022/05/10 05:47:35;;;;;;;27.40;16.63;;;;;;;16.31;80.19;101740.88;10454662;28;20053;-65
2022/05/10 05:52:38;;;;;;;22.45;16.13;;;;;;;16.43;79.82;101742.69;10446235;28;20041;-70
2022/05/10 05:57:40;;;;;;;26.13;17.13;;;;;;;16.68;81.08;101741.84;10453455;28;20045;-71
2022/05/10 06:02:43;;;;;;;21.10;16.75;;;;;;;16.82;80.20;101732.97;10456123;28;20055;-70
2022/05/10 06:07:45;;;;;;;26.10;17.08;;;;;;;16.85;78.18;101732.78;10458098;28;20095;-70
2022/05/10 06:12:47;;;;;;;25.98;16.73;;;;;;;16.91;78.21;101728.88;10462229;28;20063;-70
2022/05/10 06:17:50;;;;;;;29.27;19.25;;;;;;;16.81;80.64;101725.13;10460288;28;20038;-71
2022/05/10 06:22:53;;;;;;;24.17;18.30;;;;;;;17.23;77.11;101724.00;10446867;28;20053;-70
2022/05/10 06:27:56;;;;;;;29.02;18.98;;;;;;;17.14;77.61;101723.78;10440141;28;20045;-71
2022/05/10 06:32:59;;;;;;;25.95;19.70;;;;;;;17.24;79.11;101722.19;10437666;28;20955;-70
2022/05/10 06:38:17;;;;;;;23.70;19.48;;;;;;;17.58;79.92;101714.47;10438124;28;20052;-70
2022/05/10 06:43:19;;;;;;;24.00;19.23;;;;;;;17.72;78.92;101706.38;10423934;28;20048;-70
2022/05/10 06:48:21;;;;;;;25.00;19.25;;;;;;;18.00;80.07;101702.56;10419382;28;20396;-70
2022/05/10 06:53:25;;;;;;;20.83;17.40;;;;;;;18.32;75.22;101693.97;10422147;28;20052;-70
2022/05/10 06:58:28;;;;;;;23.33;19.27;;;;;;;18.35;79.15;101698.19;10432129;28;20487;-70
2022/05/10 07:03:32;;;;;;;23.02;18.42;;;;;;;18.43;75.93;101697.63;10420728;28;20049;-70
2022/05/10 07:08:36;;;;;;;23.92;18.65;;;;;;;18.56;75.91;101693.06;10420444;28;20045;-70
2022/05/10 07:13:39;;;;;;;23.58;18.20;;;;;;;18.74;79.59;101686.34;10420740;28;20066;-70
2022/05/10 07:18:41;;;;;;;20.23;15.80;;;;;;;19.06;74.32;101677.69;10418200;28;20049;-70
2022/05/10 07:23:44;;;;;;;22.15;16.88;;;;;;;19.22;75.84;101671.16;10427432;28;20061;-71
2022/05/10 07:28:46;;;;;;;22.23;14.82;;;;;;;19.33;72.67;101671.09;10433954;28;20048;-72
2022/05/10 07:33:49;;;;;;;16.50;14.15;;;;;;;19.17;74.28;101668.84;10425303;28;20049;-70
2022/05/10 07:38:52;;;;;;;16.58;14.63;;;;;;;19.21;74.17;101667.63;10434815;28;20045;-71
2022/05/10 07:43:55;;;;;;;17.00;14.55;;;;;;;19.76;75.64;101666.78;10443304;28;20052;-71
2022/05/10 07:48:57;;;;;;;14.77;13.40;;;;;;;20.38;71.16;101663.31;10417679;28;20072;-71
2022/05/10 07:54:00;;;;;;;16.15;13.65;;;;;;;20.82;68.41;101665.81;10418724;28;20060;-71
2022/05/10 07:59:03;;;;;;;13.70;12.13;;;;;;;21.49;68.93;101652.84;10401077;28;20041;-71
2022/05/10 08:04:05;;;;;;;16.08;12.05;;;;;;;20.84;70.13;101655.03;10417121;28;20049;-71
2022/05/10 08:09:08;;;;;;;17.25;11.60;;;;;;;21.07;66.52;101658.31;10416183;28;20052;-71
2022/05/10 08:14:10;;;;;;;12.43;10.35;;;;;;;21.39;66.84;101652.78;10417678;28;20065;-71
2022/05/10 08:19:13;;;;;;;12.63;10.63;;;;;;;21.45;64.93;101641.59;10417647;28;20045;-71
2022/05/10 08:24:15;;;;;;;15.10;9.63;;;;;;;21.66;63.85;101637.97;10417452;28;20377;-71
2022/05/10 08:29:18;;;;;;;12.82;9.90;;;;;;;21.64;64.06;101631.94;10415016;28;20072;-70
2022/05/10 08:34:20;;;;;;;11.45;8.60;;;;;;;22.35;66.68;101638.75;10416472;28;20484;-71
2022/05/10 08:39:27;;;;;;;12.60;8.07;;;;;;;23.17;59.18;101626.47;10415841;28;20124;-71
2022/05/10 08:44:35;;;;;;;9.05;7.47;;;;;;;23.21;59.22;101627.00;10398617;28;20053;-71
2022/05/10 08:49:43;;;;;;;9.98;6.70;;;;;;;23.11;57.43;101627.88;10415329;28;20401;-71
2022/05/10 08:54:46;;;;;;;9.60;6.38;;;;;;;22.98;59.04;101619.34;10414711;28;20376;-71
2022/05/10 09:00:10;;;;;;;11.82;6.55;;;;;;;22.78;61.34;101616.81;10415050;28;20373;-71
2022/05/10 09:05:42;;;;;;;8.18;6.55;;;;;;;22.10;59.80;101616.19;10416675;28;20049;-71
2022/05/10 09:10:46;;;;;;;11.23;6.47;;;;;;;22.17;59.99;101618.09;10415317;28;20077;-73
2022/05/10 09:16:06;;;;;;;8.60;6.85;;;;;;;22.20;59.61;101606.31;10414756;28;20046;-72
2022/05/10 09:21:26;;;;;;;6.07;5.03;;;;;;;22.13;59.19;101594.56;10414697;28;20049;-72
2022/05/10 09:26:46;;;;;;;13.70;6.55;;;;;;;22.77;57.21;101598.28;10413922;28;20424;-73
2022/05/10 09:37:21;;;;;;;5.65;5.15;;;;;;;23.08;56.28;101588.16;10415497;28;20049;-72
2022/05/10 09:42:35;;;;;;;6.30;4.97;;;;;;;23.61;56.24;101586.44;10417899;28;20049;-72
2022/05/10 09:47:38;;;;;;;11.63;5.30;;;;;;;24.30;52.16;101583.94;10422248;28;20053;-71
2022/05/10 09:52:41;;;;;;;5.28;4.53;;;;;;;25.98;48.92;101579.44;10423099;28;20049;-73
2022/05/10 09:57:46;;;;;;;4.60;4.13;;;;;;;25.54;52.32;101577.13;10404948;28;20049;-72
2022/05/10 10:02:57;;;;;;;6.03;3.85;;;;;;;26.63;49.18;101570.38;10422396;28;20053;-72
2022/05/10 10:07:59;;;;;;;7.30;4.15;;;;;;;26.38;47.01;101566.06;10421675;28;20045;-72
2022/05/10 10:13:23;;;;;;;6.85;3.60;;;;;;;26.77;43.80;101549.97;10421413;28;20064;-72
2022/05/10 10:18:48;;;;;;;5.30;3.70;;;;;;;28.48;43.45;101545.06;10422688;28;20049;-73
2022/05/10 10:24:00;;;;;;;15.27;4.75;;;;;;;26.67;44.01;101552.88;10404723;28;20061;-74
2022/05/10 10:29:14;;;;;;;12.10;4.40;;;;;;;26.92;44.16;101552.75;10421201;28;20397;-74
2022/05/10 10:34:29;;;;;;;15.32;4.07;;;;;;;28.32;42.36;101546.13;10420070;28;20417;-68
2022/05/10 10:39:37;;;;;;;6.10;3.55;;;;;;;27.83;43.10;101536.72;10419913;28;20049;-69
2022/05/10 10:44:44;;;;;;;6.75;3.55;;;;;;;27.61;42.63;101539.28;10421371;28;20076;-70
2022/05/10 10:49:46;;;;;;;5.88;3.42;;;;;;;29.20;40.26;101529.91;10419364;28;20045;-69
2022/05/10 10:54:48;;;;;;;8.25;3.70;;;;;;;29.11;39.89;101522.97;10420302;28;20400;-70
2022/05/10 11:00:05;;;;;;;6.95;3.30;;;;;;;29.55;39.82;101513.81;10419632;28;20059;-70
2022/05/10 11:05:29;;;;;;;7.05;3.72;;;;;;;29.43;38.92;101513.53;10419683;28;20049;-69
2022/05/10 11:10:47;;;;;;;8.57;3.60;;;;;;;31.11;36.67;101507.84;10419730;28;20485;-70
2022/05/10 11:16:14;;;;;;;4.57;3.47;;;;;;;30.47;38.65;101490.25;10419414;28;20053;-70
2022/05/10 11:21:30;;;;;;;13.32;3.72;;;;;;;28.81;40.76;101510.44;10448492;28;20099;-71
2022/05/10 11:27:10;;;;;;;8.02;3.58;;;;;;;27.65;42.27;101494.03;10459123;28;20480;-71
2022/05/10 11:32:20;;;;;;;5.88;3.45;;;;;;;27.75;41.74;101480.31;10460723;28;20040;-71
2022/05/10 11:37:44;;;;;;;7.70;2.90;;;;;;;27.21;41.52;101479.44;10459534;28;20045;-71
2022/05/10 11:43:09;;;;;;;6.70;3.38;;;;;;;26.61;43.00;101478.38;10458675;28;20052;-71
2022/05/10 11:48:30;;;;;;;8.75;3.30;;;;;;;26.45;41.88;101473.09;10459502;28;20057;-72
2022/05/10 11:53:46;;;;;;;9.55;3.08;;;;;;;27.44;40.60;101459.78;10459922;28;20128;-70
2022/05/10 11:58:50;;;;;;;5.07;3.88;;;;;;;28.33;39.73;101459.78;10442069;28;20052;-70
2022/05/10 12:03:53;;;;;;;6.93;3.08;;;;;;;27.85;40.47;101453.94;10440382;28;20408;-70
2022/05/10 12:08:59;;;;;;;5.53;3.40;;;;;;;27.06;40.65;101455.22;10441587;28;20045;-71
2022/05/10 12:24:53;;;;;;;7.75;3.72;;;;;;;26.88;43.14;101439.44;10422414;28;20111;-70
2022/05/10 12:29:58;;;;;;;6.97;3.30;;;;;;;26.94;42.10;101432.50;10417250;28;20045;-70
2022/05/10 12:35:08;;;;;;;8.63;3.63;;;;;;;26.63;42.65;101419.97;10416188;28;20064;-71
2022/05/10 12:40:12;;;;;;;5.15;3.35;;;;;;;26.82;43.47;101431.25;10416159;28;20120;-72
2022/05/10 12:45:52;;;;;;;15.85;4.15;;;;;;;25.99;44.05;101419.31;10421224;28;20052;-74
2022/05/10 12:51:02;;;;;;;5.28;3.00;;;;;;;26.65;42.90;101417.13;10421582;28;20053;-77
2022/05/10 12:56:25;;;;;;;7.43;3.30;;;;;;;27.47;41.81;101394.91;10420763;28;20057;-74
2022/05/10 13:01:31;;;;;;;6.18;3.92;;;;;;;27.48;41.93;101401.09;10427515;28;20055;-74
2022/05/10 13:06:41;;;;;;;4.82;2.95;;;;;;;26.75;41.74;101398.91;10415531;28;20049;-75
2022/05/10 13:11:47;;;;;;;8.25;3.08;;;;;;;26.20;42.37;101394.56;10427058;28;20057;-75
2022/05/10 13:16:52;;;;;;;6.13;3.40;;;;;;;25.90;43.06;101392.47;10431176;28;20408;-74
2022/05/10 13:21:55;;;;;;;4.97;3.25;;;;;;;25.80;41.82;101394.53;10439671;28;20048;-70
2022/05/10 13:27:01;;;;;;;11.13;3.70;;;;;;;26.05;42.98;101386.41;10424332;28;20065;-79
2022/05/10 13:32:03;;;;;;;6.32;3.13;;;;;;;25.85;43.58;101383.31;10407614;28;20053;-78
2022/05/10 13:37:06;;;;;;;5.28;3.10;;;;;;;25.80;43.63;101364.22;10406599;28;20516;-78
2022/05/10 13:42:09;;;;;;;8.90;3.30;;;;;;;25.76;43.31;101369.94;10425888;28;20041;-77
2022/05/10 13:47:29;;;;;;;9.32;3.00;;;;;;;26.02;43.90;101373.34;10415376;28;20061;-73
2022/05/10 13:52:33;;;;;;;8.13;3.17;;;;;;;25.91;43.66;101343.19;10394650;28;20058;-68
2022/05/10 13:57:36;;;;;;;5.22;2.63;;;;;;;26.02;43.04;101358.09;10376115;28;20421;-69
2022/05/10 14:02:38;;;;;;;5.75;2.85;;;;;;;26.02;43.12;101351.91;10409309;28;20056;-69
2022/05/10 14:07:42;;;;;;;8.32;3.22;;;;;;;26.46;41.98;101343.19;10443089;28;20503;-69
2022/05/10 14:12:59;;;;;;;4.93;2.90;;;;;;;26.28;43.49;101333.63;10443306;28;20060;-75
2022/05/10 14:18:10;;;;;;;4.15;3.13;;;;;;;26.50;43.24;101329.25;10441424;28;20496;-74
2022/05/10 14:23:14;;;;;;;5.70;3.08;;;;;;;26.37;42.95;101325.50;10427612;28;20057;-74
2022/05/10 14:28:33;;;;;;;7.70;3.63;;;;;;;26.02;42.76;101322.38;10428937;28;20228;-73
2022/05/10 14:33:39;;;;;;;20.35;4.18;;;;;;;26.78;43.20;101319.81;10442871;28;20059;-74
2022/05/10 14:38:46;;;;;;;14.93;3.35;;;;;;;25.48;43.20;101317.75;10419546;28;20053;-74
2022/05/10 14:43:48;;;;;;;4.22;2.83;;;;;;;25.72;43.09;101332.91;10417442;28;20499;-73
2022/05/10 14:49:05;;;;;;;9.18;2.92;;;;;;;24.87;43.37;101323.59;10443438;28;20085;-66
2022/05/10 14:54:10;;;;;;;5.03;3.33;;;;;;;25.36;44.50;101314.63;10434492;28;20045;-66
2022/05/10 14:59:51;;;;;;;8.68;4.25;;;;;;;24.87;45.99;101312.06;10444323;28;20045;-66
2022/05/10 15:04:54;;;;;;;8.43;3.47;;;;;;;25.20;46.72;101313.66;10428208;28;20084;-66
2022/05/10 15:09:57;;;;;;;14.80;4.30;;;;;;;24.72;48.34;101328.78;10435480;28;20045;-66
2022/05/10 15:14:59;;;;;;;14.63;5.10;;;;;;;24.16;50.14;101322.34;10420856;28;20099;-66
2022/05/10 15:20:03;;;;;;;13.02;5.40;;;;;;;24.13;51.89;101323.53;10431834;28;20132;-66
2022/05/10 15:30:19;;;;;;;8.75;6.47;;;;;;;23.41;55.96;101333.78;10416159;28;20045;-62
2022/05/10 15:35:22;;;;;;;13.93;7.28;;;;;;;22.85;57.56;101331.41;10417844;28;20485;-62
2022/05/10 15:40:25;;;;;;;12.15;7.03;;;;;;;22.86;57.03;101335.72;10417664;28;20046;-62
2022/05/10 15:45:27;;;;;;;14.60;6.90;;;;;;;22.21;59.66;101344.00;10416639;28;20049;-62
2022/05/10 15:50:32;;;;;;;10.88;6.78;;;;;;;22.46;58.73;101358.44;10418226;28;20041;-62
2022/05/10 15:55:35;;;;;;;10.15;7.25;;;;;;;22.08;59.79;101358.50;10417659;28;20400;-62
2022/05/10 16:00:40;;;;;;;6.97;5.55;;;;;;;21.64;59.63;101358.31;10433952;28;20060;-62
2022/05/10 16:05:46;;;;;;;8.60;5.22;;;;;;;21.34;59.01;101357.56;10417995;28;20451;-62
2022/05/10 16:10:53;;;;;;;;;;;;;;;21.28;58.94;101367.94;10416963;28;20045;-62
2022/05/10 16:15:56;;;;;;;7.63;4.43;;;;;;;21.33;58.94;101366.56;10417729;28;19921;-62
2022/05/10 16:20:58;;;;;;;12.45;4.32;;;;;;;21.19;58.90;101369.66;10416458;28;20103;-62
2022/05/10 16:26:00;;;;;;;7.47;3.30;;;;;;;21.05;58.69;101362.13;10417390;28;20132;-62
2022/05/10 16:31:06;;;;;;;7.45;3.97;;;;;;;21.10;57.10;101358.06;10416489;28;20041;-62
2022/05/10 16:36:08;;;;;;;7.35;3.83;;;;;;;21.18;56.61;101356.47;10416265;28;20059;-62
2022/05/10 16:41:10;;;;;;;5.05;3.50;;;;;;;20.81;57.36;101352.75;10415801;28;20054;-62
2022/05/10 16:46:13;;;;;;;6.95;3.13;;;;;;;21.12;56.73;101355.25;10416351;28;20045;-62
2022/05/10 16:51:16;;;;;;;6.35;2.92;;;;;;;20.71;58.41;101359.91;10415572;28;20532;-62
2022/05/10 16:56:18;;;;;;;5.03;2.45;;;;;;;20.44;57.62;101356.09;10416237;28;20053;-62
2022/05/10 17:01:21;;;;;;;5.95;2.78;;;;;;;20.57;57.73;101359.31;10415722;28;20499;-62
2022/05/10 17:06:23;;;;;;;7.03;2.67;;;;;;;20.46;55.61;101359.47;10415844;28;20053;-62
2022/05/10 17:11:25;;;;;;;5.28;3.63;;;;;;;20.16;54.85;101363.91;10415987;28;20045;-62
2022/05/10 17:16:28;;;;;;;10.48;7.68;;;;;;;20.38;54.52;101351.34;10415651;28;20057;-62
2022/05/10 17:21:30;;;;;;;6.55;2.55;;;;;;;20.09;54.31;101360.13;10414988;28;20038;-62
2022/05/10 17:26:34;;;;;;;3.03;2.20;;;;;;;20.27;54.57;101362.09;10415416;28;20060;-62
2022/05/10 17:31:39;;;;;;;6.75;2.53;;;;;;;19.93;55.14;101363.28;10414611;28;20048;-61
2022/05/10 17:36:46;;;;;;;3.92;1.70;;;;;;;20.09;54.89;101353.94;10414909;28;20540;-62
2022/05/10 17:41:49;;;;;;;8.70;1.80;;;;;;;20.01;56.16;101370.59;10415494;28;20133;-62
2022/05/10 17:46:54;;;;;;;3.35;1.70;;;;;;;19.71;56.88;101368.78;10413551;28;20053;-62
2022/05/10 17:51:58;;;;;;;4.40;1.60;;;;;;;19.57;57.30;101372.59;10412904;28;20077;-62
2022/05/10 17:57:01;;;;;;;2.78;2.10;;;;;;;19.60;56.53;101373.22;10414488;28;20494;-62
2022/05/10 18:02:03;;;;;;;5.93;1.98;;;;;;;19.93;56.50;101381.88;10416101;28;20052;-62
2022/05/10 18:07:06;;;;;;;5.43;1.77;;;;;;;19.27;57.11;101369.81;10422389;28;20057;-62
2022/05/10 18:12:10;;;;;;;9.80;2.40;;;;;;;19.62;57.81;101373.91;10421697;28;20439;-62
2022/05/10 18:17:15;;;;;;;6.47;2.60;;;;;;;19.81;56.92;101373.16;10422318;28;20056;-61
2022/05/10 18:22:18;;;;;;;4.20;3.13;;;;;;;19.58;57.88;101387.56;10396994;28;20046;-62
2022/05/10 18:27:20;;;;;;;6.78;3.88;;;;;;;19.26;57.21;101389.34;10421984;28;20053;-61
2022/05/10 18:32:22;;;;;;;9.13;2.95;;;;;;;19.09;58.48;101382.81;10421618;28;20132;-62
2022/05/10 18:37:25;;;;;;;7.28;2.83;;;;;;;18.97;58.42;101383.88;10420965;28;20049;-62
2022/05/10 18:42:27;;;;;;;7.65;2.40;;;;;;;19.03;58.42;101385.16;10421237;28;20502;-62
2022/05/10 18:47:29;;;;;;;10.80;8.02;;;;;;;18.63;59.11;101386.63;10421159;28;20065;-62
2022/05/10 18:52:32;;;;;;;4.35;2.60;;;;;;;18.60;58.67;101375.44;10421144;28;20049;-62
2022/05/10 18:57:35;;;;;;;3.55;2.22;;;;;;;18.73;59.19;101368.16;10419845;28;20529;-62
2022/05/10 19:02:37;;;;;;;6.60;2.67;;;;;;;18.67;59.18;101381.91;10420711;28;20481;-62
2022/05/10 19:07:40;;;;;;;4.65;2.25;;;;;;;18.37;58.46;101373.72;10418725;28;20132;-61
2022/05/10 19:12:43;;;;;;;4.80;2.15;;;;;;;18.67;57.86;101379.25;10418590;28;20045;-61
2022/05/10 19:17:46;;;;;;;3.00;1.98;;;;;;;18.65;56.94;101373.25;10419823;28;20045;-62
2022/05/10 19:22:48;;;;;;;4.90;3.15;;;;;;;18.60;58.29;101378.09;10419178;28;20412;-62
2022/05/10 19:27:52;;;;;;;6.18;1.73;;;;;;;18.53;57.54;101386.53;10419597;28;20058;-61
2022/05/10 19:32:54;;;;;;;3.17;2.00;;;;;;;18.54;58.82;101390.91;10419642;28;20050;-62
2022/05/10 19:37:57;;;;;;;6.78;2.20;;;;;;;18.55;58.02;101381.13;10418940;28;20056;-62
2022/05/10 19:42:59;;;;;;;4.75;1.98;;;;;;;18.35;59.36;101388.03;10418768;28;20136;-62
2022/05/10 19:48:02;;;;;;;3.40;1.67;;;;;;;18.33;58.23;101393.47;10418814;28;20056;-62
2022/05/10 19:53:04;;;;;;;5.00;2.13;;;;;;;18.22;57.56;101390.00;10417838;28;20041;-62
2022/05/10 19:58:07;;;;;;;4.63;2.00;;;;;;;18.26;58.62;101394.94;10417589;28;20060;-62
2022/05/10 20:08:30;;;;;;;9.45;2.20;;;;;;;18.05;58.44;101402.78;10418091;28;20050;-62
2022/05/10 20:13:33;;;;;;;7.07;2.17;;;;;;;17.96;59.66;101403.53;10417583;28;20091;-61
2022/05/10 20:18:35;;;;;;;10.38;2.75;;;;;;;18.00;58.81;101397.00;10417239;28;20481;-62
2022/05/10 20:23:37;;;;;;;4.88;1.95;;;;;;;18.08;59.16;101404.34;10416898;28;20057;-62
2022/05/10 20:28:40;;;;;;;6.72;2.30;;;;;;;17.89;60.42;101394.38;10415999;28;20068;-62
2022/05/10 20:33:43;;;;;;;5.68;2.47;;;;;;;18.12;60.44;101392.53;10417316;28;20056;-62
2022/05/10 20:38:47;;;;;;;3.75;1.90;;;;;;;17.95;60.87;101375.34;10416909;28;20053;-62
2022/05/10 20:43:50;;;;;;;2.20;2.00;;;;;;;17.78;61.61;101380.13;10416706;28;20055;-61
2022/05/10 20:48:53;;;;;;;4.30;2.13;;;;;;;17.67;62.34;101384.59;10416487;28;20049;-61
2022/05/10 20:53:55;;;;;;;3.95;2.17;;;;;;;17.88;62.98;101387.41;10415973;28;20053;-61
2022/05/10 20:58:57;;;;;;;5.88;1.70;;;;;;;17.90;63.20;101394.25;10415956;28;20225;-61
2022/05/10 21:04:00;;;;;;;3.53;1.70;;;;;;;17.73;64.00;101390.25;10415819;28;20056;-61
2022/05/10 21:09:02;;;;;;;4.97;1.90;;;;;;;17.61;66.45;101388.56;10415670;28;20049;-62
2022/05/10 21:14:04;;;;;;;4.30;1.80;;;;;;;17.62;67.02;101385.78;10413916;28;20507;-62
2022/05/10 21:19:07;;;;;;;3.70;2.08;;;;;;;17.65;67.96;101382.03;10414197;28;20408;-61
2022/05/10 21:24:09;;;;;;;6.22;1.85;;;;;;;17.66;67.88;101377.63;10414356;28;20045;-61
2022/05/10 21:34:32;;;;;;;6.60;2.40;;;;;;;17.67;70.16;101361.63;10414880;28;20049;-61
2022/05/10 21:39:35;;;;;;;5.35;2.80;;;;;;;17.63;69.05;101358.38;10421830;28;20045;-61
2022/05/10 21:44:37;;;;;;;2.92;1.90;;;;;;;17.35;67.87;101342.91;10423114;28;20057;-60
2022/05/10 21:49:40;;;;;;;3.70;2.17;;;;;;;17.35;69.34;101341.13;10423258;28;20045;-61
2022/05/10 21:54:42;;;;;;;5.70;2.17;;;;;;;17.44;70.47;101334.28;10438174;28;20049;-61
2022/05/10 21:59:44;;;;;;;3.92;1.77;;;;;;;17.70;68.62;101342.84;10437854;28;20052;-61
2022/05/10 22:04:47;;;;;;;4.65;1.63;;;;;;;17.45;70.32;101347.41;10421998;28;20407;-61
2022/05/10 22:09:49;;;;;;;4.35;1.83;;;;;;;17.53;71.13;101349.44;10422238;28;20499;-61
2022/05/10 22:14:52;;;;;;;3.40;2.35;;;;;;;17.76;71.11;101350.28;10422138;28;20061;-61
2022/05/10 22:19:54;;;;;;;3.58;1.77;;;;;;;17.35;72.29;101337.63;10422424;28;20052;-61
2022/05/10 22:24:56;;;;;;;4.68;2.22;;;;;;;17.49;71.87;101326.00;10421921;28;20143;-61
2022/05/10 22:29:59;;;;;;;4.60;1.95;;;;;;;17.47;75.21;101320.81;10421909;28;20061;-61
2022/05/10 22:35:02;;;;;;;5.03;1.50;;;;;;;16.86;82.68;101314.00;10421111;28;20055;-61
2022/05/10 22:40:07;;;;;;;3.53;1.52;;;;;;;17.06;77.46;101317.78;10421686;28;20050;-61
2022/05/10 22:45:10;;;;;;;3.83;2.20;;;;;;;16.96;83.87;101316.75;10420667;28;20045;-61
2022/05/10 22:50:16;;;;;;;2.33;1.60;;;;;;;16.84;83.65;101312.38;10420585;28;20112;-61
2022/05/10 22:55:19;;;;;;;1.90;1.60;;;;;;;17.02;83.74;101310.19;10421084;28;20053;-61
2022/05/10 23:00:21;;;;;;;3.55;1.80;;;;;;;16.85;85.77;101314.13;10420800;28;20049;-61
2022/05/10 23:05:23;;;;;;;4.80;2.10;;;;;;;16.60;86.80;101312.44;10435838;28;20053;-61
2022/05/10 23:10:26;;;;;;;4.82;2.15;;;;;;;16.47;87.99;101315.97;10420552;28;20045;-61
2022/05/10 23:15:28;;;;;;;2.50;1.48;;;;;;;16.35;90.09;101312.44;10419643;28;20547;-61
2022/05/10 23:20:30;;;;;;;5.75;1.90;;;;;;;16.56;88.26;101287.19;10419177;28;20484;-61
2022/05/10 23:25:33;;;;;;;2.60;1.92;;;;;;;16.55;91.22;101286.34;10419802;28;20049;-61
2022/05/10 23:30:35;;;;;;;4.03;1.75;;;;;;;16.32;92.10;101280.97;10419892;28;20041;-61
2022/05/10 23:35:38;;;;;;;3.45;1.80;;;;;;;16.39;92.43;101272.59;10418954;28;20418;-61
2022/05/10 23:40:41;;;;;;;3.13;1.88;;;;;;;16.19;94.32;101274.91;10419053;28;20053;-61
2022/05/10 23:45:43;;;;;;;2.88;2.08;;;;;;;16.30;92.85;101258.25;10419310;28;20053;-61
2022/05/10 23:50:46;;;;;;;5.75;1.90;;;;;;;16.28;91.19;101261.00;10418807;28;20045;-61
2022/05/10 23:55:48;;;;;;;2.97;2.05;;;;;;;16.22;93.03;101258.81;10418946;28;20056;-61
